Bill Berry (bbr) — WDB8998 — position and weather

sailwx.info

Track history (hours):
 
Tides and Currents Weather Stations Pressure Air Temp Water Temp Dewpoint Dewpoint Depression Visibility Wind Speed Wind Dir Waves Ship Positions

Bill Berry (bbr)

Owner: INGRAM BARGE COMPANY, Nashville, TN. More information available from US FCC via Universal Licensing System and Coast Guard Vessel Documentation Center.

Last reported at 2017-May-22 21:07 UTC. Time now 2017-May-26 22:50 UTC.
Position N 40°42' W 091°07'.

Length 41 m; draft 3 m.

Type: Towing. MMSI: 366967630.

Date/timePositionNaut miles runAvg speedWind from/ knotsBaromVisibWave heightAir tempDewpointWater temp
2017-May-22 21:07N 40°42' W 091°07'1 7.1
2017-May-22 21:00N 40°42' W 091°07'3 6.2
2017-May-22 20:28N 40°46' W 091°06'3 6.4
2017-May-22 20:00N 40°49' W 091°06'4 7.4
2017-May-22 19:30N 40°52' W 091°03'2 3.4
2017-May-22 19:00N 40°53' W 091°01'0 0.3
2017-May-22 18:30N 40°53' W 091°01'0 0.2
2017-May-22 17:47N 40°53' W 091°01'0 1.2
2017-May-22 17:30N 40°53' W 091°01'3 6.3
2017-May-22 17:00N 40°55' W 090°58'4 7.0
2017-May-22 16:30N 40°59' W 090°57'7 0.2
2017-May-20 23:38N 41°06' W 090°57'3 4.3
2017-May-20 22:56N 41°03' W 090°57'2 4.3
2017-May-20 22:30N 41°01' W 090°57'2 4.2
2017-May-20 22:00N 40°59' W 090°57'2 3.7
2017-May-20 21:29N 40°57' W 090°57'2 4.2
2017-May-20 21:00N 40°55' W 090°58'2 4.0
2017-May-20 20:30N 40°54' W 091°00'1 2.9
2017-May-20 20:00N 40°53' W 091°01'0 0.3
2017-May-20 19:30N 40°53' W 091°02'0 0.1
2017-May-20 19:00N 40°53' W 091°02'2 4.0
2017-May-20 18:30N 40°51' W 091°03'2 4.0
2017-May-20 18:00N 40°50' W 091°05'0 0.4
2017-May-20 17:30N 40°50' W 091°05'0 0.0
2017-May-20 17:00N 40°50' W 091°05'0 0.0
2017-May-20 16:30N 40°50' W 091°05'0 0.0
2017-May-20 16:00N 40°50' W 091°05'0 0.0
2017-May-20 15:30N 40°50' W 091°05'0 0.0
2017-May-20 15:00N 40°50' W 091°05'0 0.0
2017-May-20 14:00N 40°50' W 091°05'0 0.0
2017-May-20 13:30N 40°50' W 091°05'0 0.0
2017-May-20 13:00N 40°50' W 091°05'0 0.0
2017-May-20 12:30N 40°50' W 091°05'0 0.0
2017-May-20 12:00N 40°50' W 091°05'0 0.0
2017-May-20 11:30N 40°50' W 091°05'0 0.0
2017-May-20 11:00N 40°50' W 091°05'0 0.0
2017-May-20 10:30N 40°50' W 091°05'0 0.0
2017-May-20 10:00N 40°50' W 091°05'1 2.1
2017-May-20 09:30N 40°49' W 091°06'  
Track history (hours):
 
Tides and Currents Weather Stations Pressure Air Temp Water Temp Dewpoint Dewpoint Depression Visibility Wind Speed Wind Dir Waves Ship Positions

Bill Berry (bbr)

Owner: INGRAM BARGE COMPANY, Nashville, TN. More information available from US FCC via Universal Licensing System and Coast Guard Vessel Documentation Center.

Last reported at 2017-May-22 21:07 UTC. Time now 2017-May-26 22:50 UTC.
Position N 40°42' W 091°07'.

Length 41 m; draft 3 m.

Type: Towing. MMSI: 366967630.

Date/timePositionNaut miles runAvg speedWind from/ knotsBaromVisibWave heightAir tempDewpointWater temp
2017-May-22 21:07N 40°42' W 091°07'1 7.1
2017-May-22 21:00N 40°42' W 091°07'3 6.2
2017-May-22 20:28N 40°46' W 091°06'3 6.4
2017-May-22 20:00N 40°49' W 091°06'4 7.4
2017-May-22 19:30N 40°52' W 091°03'2 3.4
2017-May-22 19:00N 40°53' W 091°01'0 0.3
2017-May-22 18:30N 40°53' W 091°01'0 0.2
2017-May-22 17:47N 40°53' W 091°01'0 1.2
2017-May-22 17:30N 40°53' W 091°01'3 6.3
2017-May-22 17:00N 40°55' W 090°58'4 7.0
2017-May-22 16:30N 40°59' W 090°57'7 0.2
2017-May-20 23:38N 41°06' W 090°57'3 4.3
2017-May-20 22:56N 41°03' W 090°57'2 4.3
2017-May-20 22:30N 41°01' W 090°57'2 4.2
2017-May-20 22:00N 40°59' W 090°57'2 3.7
2017-May-20 21:29N 40°57' W 090°57'2 4.2
2017-May-20 21:00N 40°55' W 090°58'2 4.0
2017-May-20 20:30N 40°54' W 091°00'1 2.9
2017-May-20 20:00N 40°53' W 091°01'0 0.3
2017-May-20 19:30N 40°53' W 091°02'0 0.1
2017-May-20 19:00N 40°53' W 091°02'2 4.0
2017-May-20 18:30N 40°51' W 091°03'2 4.0
2017-May-20 18:00N 40°50' W 091°05'0 0.4
2017-May-20 17:30N 40°50' W 091°05'0 0.0
2017-May-20 17:00N 40°50' W 091°05'0 0.0
2017-May-20 16:30N 40°50' W 091°05'0 0.0
2017-May-20 16:00N 40°50' W 091°05'0 0.0
2017-May-20 15:30N 40°50' W 091°05'0 0.0
2017-May-20 15:00N 40°50' W 091°05'0 0.0
2017-May-20 14:00N 40°50' W 091°05'0 0.0
2017-May-20 13:30N 40°50' W 091°05'0 0.0
2017-May-20 13:00N 40°50' W 091°05'0 0.0
2017-May-20 12:30N 40°50' W 091°05'0 0.0
2017-May-20 12:00N 40°50' W 091°05'0 0.0
2017-May-20 11:30N 40°50' W 091°05'0 0.0
2017-May-20 11:00N 40°50' W 091°05'0 0.0
2017-May-20 10:30N 40°50' W 091°05'0 0.0
2017-May-20 10:00N 40°50' W 091°05'1 2.1
2017-May-20 09:30N 40°49' W 091°06'  

Dump ship's entire track history